sensor_id;sensor_type;location;lat;lon;timestamp;temperature;humidity
70368;DHT22;57789;53.868;10.728;2023-02-01T00:01:55;5.40;99.90
70368;DHT22;57789;53.868;10.728;2023-02-01T00:04:21;5.40;99.90
70368;DHT22;57789;53.868;10.728;2023-02-01T00:06:47;5.40;99.90
70368;DHT22;57789;53.868;10.728;2023-02-01T00:09:13;5.40;99.90
70368;DHT22;57789;53.868;10.728;2023-02-01T00:11:40;5.40;99.90
70368;DHT22;57789;53.868;10.728;2023-02-01T00:14:06;5.40;99.90
70368;DHT22;57789;53.868;10.728;2023-02-01T00:16:33;5.40;99.90
70368;DHT22;57789;53.868;10.728;2023-02-01T00:19:02;5.40;99.90
70368;DHT22;57789;53.868;10.728;2023-02-01T00:21:29;5.40;99.90
70368;DHT22;57789;53.868;10.728;2023-02-01T00:23:55;5.30;99.90
70368;DHT22;57789;53.868;10.728;2023-02-01T00:26:36;5.40;99.90
70368;DHT22;57789;53.868;10.728;2023-02-01T00:29:05;5.30;99.90
70368;DHT22;57789;53.868;10.728;2023-02-01T00:31:32;5.30;99.90
70368;DHT22;57789;53.868;10.728;2023-02-01T00:33:58;5.40;99.90
70368;DHT22;57789;53.868;10.728;2023-02-01T00:36:24;5.40;99.90
70368;DHT22;57789;53.868;10.728;2023-02-01T00:38:50;5.40;99.90
70368;DHT22;57789;53.868;10.728;2023-02-01T00:41:18;5.40;99.90
70368;DHT22;57789;53.868;10.728;2023-02-01T00:43:44;5.40;99.90
70368;DHT22;57789;53.868;10.728;2023-02-01T00:46:11;5.50;99.90
70368;DHT22;57789;53.868;10.728;2023-02-01T00:48:37;5.40;99.90
70368;DHT22;57789;53.868;10.728;2023-02-01T00:51:06;5.40;99.90
70368;DHT22;57789;53.868;10.728;2023-02-01T00:53:34;5.40;99.90
70368;DHT22;57789;53.868;10.728;2023-02-01T00:56:00;5.40;99.90
70368;DHT22;57789;53.868;10.728;2023-02-01T00:58:27;5.40;99.90
70368;DHT22;57789;53.868;10.728;2023-02-01T01:01:14;5.40;99.90
70368;DHT22;57789;53.868;10.728;2023-02-01T01:03:51;5.40;99.90
70368;DHT22;57789;53.868;10.728;2023-02-01T01:06:22;5.40;99.90
70368;DHT22;57789;53.868;10.728;2023-02-01T01:08:49;5.40;99.90
70368;DHT22;57789;53.868;10.728;2023-02-01T01:11:21;5.40;99.90
70368;DHT22;57789;53.868;10.728;2023-02-01T01:13:49;5.40;99.90
70368;DHT22;57789;53.868;10.728;2023-02-01T01:16:15;5.40;99.90
70368;DHT22;57789;53.868;10.728;2023-02-01T01:18:40;5.50;99.90
70368;DHT22;57789;53.868;10.728;2023-02-01T01:21:08;5.40;99.90
70368;DHT22;57789;53.868;10.728;2023-02-01T01:23:35;5.50;99.90
70368;DHT22;57789;53.868;10.728;2023-02-01T01:26:08;5.50;99.90
70368;DHT22;57789;53.868;10.728;2023-02-01T01:28:34;5.40;99.90
70368;DHT22;57789;53.868;10.728;2023-02-01T01:31:00;5.40;99.90
70368;DHT22;57789;53.868;10.728;2023-02-01T01:33:26;5.50;99.90
70368;DHT22;57789;53.868;10.728;2023-02-01T01:35:52;5.50;99.90
70368;DHT22;57789;53.868;10.728;2023-02-01T01:38:17;5.50;99.90
70368;DHT22;57789;53.868;10.728;2023-02-01T01:40:47;5.50;99.90
70368;DHT22;57789;53.868;10.728;2023-02-01T01:43:16;5.50;99.90
70368;DHT22;57789;53.868;10.728;2023-02-01T01:45:42;5.50;99.90
70368;DHT22;57789;53.868;10.728;2023-02-01T01:48:22;5.40;99.90
70368;DHT22;57789;53.868;10.728;2023-02-01T01:53:26;5.40;99.90
70368;DHT22;57789;53.868;10.728;2023-02-01T01:55:54;5.40;99.90
70368;DHT22;57789;53.868;10.728;2023-02-01T01:58:24;5.40;99.90
70368;DHT22;57789;53.868;10.728;2023-02-01T02:00:52;5.50;99.90
70368;DHT22;57789;53.868;10.728;2023-02-01T02:03:35;5.50;99.90
70368;DHT22;57789;53.868;10.728;2023-02-01T02:06:03;5.60;99.90
70368;DHT22;57789;53.868;10.728;2023-02-01T02:08:31;5.50;99.90
70368;DHT22;57789;53.868;10.728;2023-02-01T02:10:56;5.50;99.90
70368;DHT22;57789;53.868;10.728;2023-02-01T02:13:27;5.60;99.90
70368;DHT22;57789;53.868;10.728;2023-02-01T02:16:47;5.60;99.90
70368;DHT22;57789;53.868;10.728;2023-02-01T02:19:10;5.50;99.90
70368;DHT22;57789;53.868;10.728;2023-02-01T02:42:16;5.60;99.90
70368;DHT22;57789;53.868;10.728;2023-02-01T02:56:33;5.60;99.90
70368;DHT22;57789;53.868;10.728;2023-02-01T02:59:21;5.60;99.90
70368;DHT22;57789;53.868;10.728;2023-02-01T03:02:08;5.60;99.90
70368;DHT22;57789;53.868;10.728;2023-02-01T03:04:54;5.60;99.90
70368;DHT22;57789;53.868;10.728;2023-02-01T03:10:11;5.60;99.90
70368;DHT22;57789;53.868;10.728;2023-02-01T03:12:43;5.60;99.90
70368;DHT22;57789;53.868;10.728;2023-02-01T03:17:58;5.60;99.90
70368;DHT22;57789;53.868;10.728;2023-02-01T03:20:27;5.60;99.90
70368;DHT22;57789;53.868;10.728;2023-02-01T03:22:54;5.60;99.90
70368;DHT22;57789;53.868;10.728;2023-02-01T03:25:28;5.60;99.90
70368;DHT22;57789;53.868;10.728;2023-02-01T03:28:02;5.70;99.90
70368;DHT22;57789;53.868;10.728;2023-02-01T03:30:37;5.70;99.90
70368;DHT22;57789;53.868;10.728;2023-02-01T03:33:06;5.70;99.90
70368;DHT22;57789;53.868;10.728;2023-02-01T03:40:49;5.70;99.90
70368;DHT22;57789;53.868;10.728;2023-02-01T03:43:19;5.80;99.90
70368;DHT22;57789;53.868;10.728;2023-02-01T03:45:50;5.70;99.90
70368;DHT22;57789;53.868;10.728;2023-02-01T03:48:18;5.70;99.90
70368;DHT22;57789;53.868;10.728;2023-02-01T03:50:50;5.70;99.90
70368;DHT22;57789;53.868;10.728;2023-02-01T03:53:20;5.70;99.90
70368;DHT22;57789;53.868;10.728;2023-02-01T03:55:52;5.50;99.90
70368;DHT22;57789;53.868;10.728;2023-02-01T03:58:23;5.00;99.90
70368;DHT22;57789;53.868;10.728;2023-02-01T04:00:57;4.70;99.90
70368;DHT22;57789;53.868;10.728;2023-02-01T04:03:25;4.60;99.90
70368;DHT22;57789;53.868;10.728;2023-02-01T04:05:51;4.50;99.90
70368;DHT22;57789;53.868;10.728;2023-02-01T04:08:19;4.60;99.90
70368;DHT22;57789;53.868;10.728;2023-02-01T04:10:44;4.50;99.90
70368;DHT22;57789;53.868;10.728;2023-02-01T04:13:11;4.60;99.90
70368;DHT22;57789;53.868;10.728;2023-02-01T04:15:37;4.60;99.90
70368;DHT22;57789;53.868;10.728;2023-02-01T04:18:05;4.60;99.90
70368;DHT22;57789;53.868;10.728;2023-02-01T04:20:32;4.60;99.90
70368;DHT22;57789;53.868;10.728;2023-02-01T04:22:57;4.60;99.90
70368;DHT22;57789;53.868;10.728;2023-02-01T04:25:23;4.50;99.90
70368;DHT22;57789;53.868;10.728;2023-02-01T04:27:49;4.50;99.90
70368;DHT22;57789;53.868;10.728;2023-02-01T04:30:15;4.40;99.90
70368;DHT22;57789;53.868;10.728;2023-02-01T04:32:40;4.20;99.90
70368;DHT22;57789;53.868;10.728;2023-02-01T04:35:07;4.00;99.90
70368;DHT22;57789;53.868;10.728;2023-02-01T04:37:33;3.90;99.90
70368;DHT22;57789;53.868;10.728;2023-02-01T04:39:59;3.90;99.90
70368;DHT22;57789;53.868;10.728;2023-02-01T04:42:24;3.80;99.90
70368;DHT22;57789;53.868;10.728;2023-02-01T04:44:50;3.90;99.90
70368;DHT22;57789;53.868;10.728;2023-02-01T04:47:16;3.80;99.90
70368;DHT22;57789;53.868;10.728;2023-02-01T04:49:42;3.80;99.90
70368;DHT22;57789;53.868;10.728;2023-02-01T04:52:07;3.70;99.90
70368;DHT22;57789;53.868;10.728;2023-02-01T04:54:33;3.70;99.90
70368;DHT22;57789;53.868;10.728;2023-02-01T04:56:59;3.60;99.90
70368;DHT22;57789;53.868;10.728;2023-02-01T04:59:25;3.60;99.90
70368;DHT22;57789;53.868;10.728;2023-02-01T05:01:51;3.60;99.90
70368;DHT22;57789;53.868;10.728;2023-02-01T05:04:17;3.60;99.90
70368;DHT22;57789;53.868;10.728;2023-02-01T05:06:44;3.60;99.90
70368;DHT22;57789;53.868;10.728;2023-02-01T05:09:10;3.60;99.90
70368;DHT22;57789;53.868;10.728;2023-02-01T05:11:36;3.60;99.90
70368;DHT22;57789;53.868;10.728;2023-02-01T05:14:21;3.70;99.90
70368;DHT22;57789;53.868;10.728;2023-02-01T05:16:46;3.70;99.90
70368;DHT22;57789;53.868;10.728;2023-02-01T05:19:12;3.70;99.90
70368;DHT22;57789;53.868;10.728;2023-02-01T05:21:38;3.70;99.90
70368;DHT22;57789;53.868;10.728;2023-02-01T05:24:04;3.80;99.90
70368;DHT22;57789;53.868;10.728;2023-02-01T05:26:45;3.80;99.90
70368;DHT22;57789;53.868;10.728;2023-02-01T05:29:11;3.80;99.90
70368;DHT22;57789;53.868;10.728;2023-02-01T05:31:37;3.80;99.90
70368;DHT22;57789;53.868;10.728;2023-02-01T05:34:03;3.80;99.90
70368;DHT22;57789;53.868;10.728;2023-02-01T05:36:30;3.80;99.90
70368;DHT22;57789;53.868;10.728;2023-02-01T05:38:56;3.90;99.90
70368;DHT22;57789;53.868;10.728;2023-02-01T05:41:22;3.90;99.90
70368;DHT22;57789;53.868;10.728;2023-02-01T05:43:47;4.00;99.90
70368;DHT22;57789;53.868;10.728;2023-02-01T05:46:13;3.90;99.90
70368;DHT22;57789;53.868;10.728;2023-02-01T05:48:42;4.00;99.90
70368;DHT22;57789;53.868;10.728;2023-02-01T05:51:09;4.00;99.90
70368;DHT22;57789;53.868;10.728;2023-02-01T05:53:35;3.80;99.90
70368;DHT22;57789;53.868;10.728;2023-02-01T05:56:01;3.70;99.90
70368;DHT22;57789;53.868;10.728;2023-02-01T05:58:27;3.60;99.90
70368;DHT22;57789;53.868;10.728;2023-02-01T06:00:53;3.50;99.90
70368;DHT22;57789;53.868;10.728;2023-02-01T06:03:19;3.50;99.90
70368;DHT22;57789;53.868;10.728;2023-02-01T06:05:45;3.50;99.90
70368;DHT22;57789;53.868;10.728;2023-02-01T06:08:11;3.50;99.90
70368;DHT22;57789;53.868;10.728;2023-02-01T06:10:36;3.60;99.90
70368;DHT22;57789;53.868;10.728;2023-02-01T06:13:02;3.60;99.90
70368;DHT22;57789;53.868;10.728;2023-02-01T06:15:30;3.60;99.90
70368;DHT22;57789;53.868;10.728;2023-02-01T06:17:55;3.60;99.90
70368;DHT22;57789;53.868;10.728;2023-02-01T06:20:21;3.60;99.90
70368;DHT22;57789;53.868;10.728;2023-02-01T06:22:47;3.60;99.90
70368;DHT22;57789;53.868;10.728;2023-02-01T06:25:14;3.60;99.90
70368;DHT22;57789;53.868;10.728;2023-02-01T06:27:39;3.60;99.90
70368;DHT22;57789;53.868;10.728;2023-02-01T06:30:07;3.60;99.90
70368;DHT22;57789;53.868;10.728;2023-02-01T06:32:34;3.60;99.90
70368;DHT22;57789;53.868;10.728;2023-02-01T06:35:02;3.70;99.90
70368;DHT22;57789;53.868;10.728;2023-02-01T06:37:31;3.70;99.90
70368;DHT22;57789;53.868;10.728;2023-02-01T06:39:56;3.70;99.90
70368;DHT22;57789;53.868;10.728;2023-02-01T06:42:22;3.70;99.90
70368;DHT22;57789;53.868;10.728;2023-02-01T06:44:48;3.70;99.90
70368;DHT22;57789;53.868;10.728;2023-02-01T06:47:15;3.70;99.90
70368;DHT22;57789;53.868;10.728;2023-02-01T06:49:41;3.60;99.90
70368;DHT22;57789;53.868;10.728;2023-02-01T06:52:08;3.60;99.90
70368;DHT22;57789;53.868;10.728;2023-02-01T06:54:33;3.50;99.90
70368;DHT22;57789;53.868;10.728;2023-02-01T06:56:59;3.60;99.90
70368;DHT22;57789;53.868;10.728;2023-02-01T06:59:26;3.60;99.90
70368;DHT22;57789;53.868;10.728;2023-02-01T07:01:51;3.70;99.90
70368;DHT22;57789;53.868;10.728;2023-02-01T07:04:17;3.70;99.90
70368;DHT22;57789;53.868;10.728;2023-02-01T07:06:43;3.60;99.90
70368;DHT22;57789;53.868;10.728;2023-02-01T07:09:13;3.70;99.90
70368;DHT22;57789;53.868;10.728;2023-02-01T07:11:44;3.70;99.90
70368;DHT22;57789;53.868;10.728;2023-02-01T07:14:11;3.70;99.90
70368;DHT22;57789;53.868;10.728;2023-02-01T07:16:38;3.80;99.90
70368;DHT22;57789;53.868;10.728;2023-02-01T07:19:05;3.70;99.90
70368;DHT22;57789;53.868;10.728;2023-02-01T07:21:31;3.70;99.90
70368;DHT22;57789;53.868;10.728;2023-02-01T07:23:58;3.70;99.90
70368;DHT22;57789;53.868;10.728;2023-02-01T07:26:24;3.70;99.90
70368;DHT22;57789;53.868;10.728;2023-02-01T07:28:50;3.70;99.90
70368;DHT22;57789;53.868;10.728;2023-02-01T07:31:17;3.70;99.90
70368;DHT22;57789;53.868;10.728;2023-02-01T07:33:48;3.70;99.90
70368;DHT22;57789;53.868;10.728;2023-02-01T07:36:23;3.60;99.90
70368;DHT22;57789;53.868;10.728;2023-02-01T07:38:50;3.60;99.90
70368;DHT22;57789;53.868;10.728;2023-02-01T07:41:17;3.60;99.90
70368;DHT22;57789;53.868;10.728;2023-02-01T07:43:43;3.60;99.90
70368;DHT22;57789;53.868;10.728;2023-02-01T07:46:10;3.50;99.90
70368;DHT22;57789;53.868;10.728;2023-02-01T07:48:38;3.60;99.90
70368;DHT22;57789;53.868;10.728;2023-02-01T07:51:08;3.60;99.90
70368;DHT22;57789;53.868;10.728;2023-02-01T07:53:37;3.60;99.90
70368;DHT22;57789;53.868;10.728;2023-02-01T07:56:17;3.70;99.90
70368;DHT22;57789;53.868;10.728;2023-02-01T07:58:46;3.70;99.90
70368;DHT22;57789;53.868;10.728;2023-02-01T08:01:32;3.70;99.90
70368;DHT22;57789;53.868;10.728;2023-02-01T08:04:00;3.70;99.90
70368;DHT22;57789;53.868;10.728;2023-02-01T08:06:27;3.80;99.90
70368;DHT22;57789;53.868;10.728;2023-02-01T08:08:53;3.80;99.90
70368;DHT22;57789;53.868;10.728;2023-02-01T08:11:21;3.90;99.90
70368;DHT22;57789;53.868;10.728;2023-02-01T08:13:48;3.90;99.90
70368;DHT22;57789;53.868;10.728;2023-02-01T08:16:16;3.90;99.90
70368;DHT22;57789;53.868;10.728;2023-02-01T08:18:42;4.00;99.90
70368;DHT22;57789;53.868;10.728;2023-02-01T08:21:12;4.10;99.90
70368;DHT22;57789;53.868;10.728;2023-02-01T08:23:39;4.30;99.90
70368;DHT22;57789;53.868;10.728;2023-02-01T08:26:17;4.40;99.90
70368;DHT22;57789;53.868;10.728;2023-02-01T08:28:46;4.60;99.90
70368;DHT22;57789;53.868;10.728;2023-02-01T08:31:14;4.70;99.90
70368;DHT22;57789;53.868;10.728;2023-02-01T08:33:43;4.90;99.90
70368;DHT22;57789;53.868;10.728;2023-02-01T08:36:09;5.00;99.90
70368;DHT22;57789;53.868;10.728;2023-02-01T08:38:37;5.10;99.90
70368;DHT22;57789;53.868;10.728;2023-02-01T08:41:16;5.30;99.90
70368;DHT22;57789;53.868;10.728;2023-02-01T08:43:45;5.50;99.90
70368;DHT22;57789;53.868;10.728;2023-02-01T08:46:14;5.50;99.90
70368;DHT22;57789;53.868;10.728;2023-02-01T08:48:41;5.40;99.90
70368;DHT22;57789;53.868;10.728;2023-02-01T08:51:10;5.30;99.90
70368;DHT22;57789;53.868;10.728;2023-02-01T08:53:38;5.20;99.90
70368;DHT22;57789;53.868;10.728;2023-02-01T08:56:05;5.10;99.90
70368;DHT22;57789;53.868;10.728;2023-02-01T08:58:32;5.00;99.90
70368;DHT22;57789;53.868;10.728;2023-02-01T09:01:06;4.90;99.90
70368;DHT22;57789;53.868;10.728;2023-02-01T09:03:36;4.90;99.90
70368;DHT22;57789;53.868;10.728;2023-02-01T09:06:07;4.80;99.90
70368;DHT22;57789;53.868;10.728;2023-02-01T09:08:34;4.80;99.90
70368;DHT22;57789;53.868;10.728;2023-02-01T09:11:02;4.80;99.90
70368;DHT22;57789;53.868;10.728;2023-02-01T09:13:28;4.80;99.90
70368;DHT22;57789;53.868;10.728;2023-02-01T09:15:56;4.90;99.90
70368;DHT22;57789;53.868;10.728;2023-02-01T09:18:25;5.00;99.90
70368;DHT22;57789;53.868;10.728;2023-02-01T09:20:51;5.20;99.90
70368;DHT22;57789;53.868;10.728;2023-02-01T09:23:17;5.30;99.90
70368;DHT22;57789;53.868;10.728;2023-02-01T09:25:46;5.40;99.90
70368;DHT22;57789;53.868;10.728;2023-02-01T09:28:16;5.50;99.90
70368;DHT22;57789;53.868;10.728;2023-02-01T09:30:43;5.60;99.90
70368;DHT22;57789;53.868;10.728;2023-02-01T09:33:09;5.70;99.90
70368;DHT22;57789;53.868;10.728;2023-02-01T09:35:36;5.70;99.90
70368;DHT22;57789;53.868;10.728;2023-02-01T09:38:04;5.70;99.90
70368;DHT22;57789;53.868;10.728;2023-02-01T09:40:34;5.80;99.90
70368;DHT22;57789;53.868;10.728;2023-02-01T09:43:21;5.80;99.90
70368;DHT22;57789;53.868;10.728;2023-02-01T09:48:51;5.70;99.90
70368;DHT22;57789;53.868;10.728;2023-02-01T09:51:27;5.60;99.90
70368;DHT22;57789;53.868;10.728;2023-02-01T09:54:24;5.60;99.90
70368;DHT22;57789;53.868;10.728;2023-02-01T09:57:13;5.50;99.90
70368;DHT22;57789;53.868;10.728;2023-02-01T09:59:43;5.40;99.90
70368;DHT22;57789;53.868;10.728;2023-02-01T10:02:17;5.60;99.90
70368;DHT22;57789;53.868;10.728;2023-02-01T10:04:45;5.80;99.90
70368;DHT22;57789;53.868;10.728;2023-02-01T10:10:30;6.20;99.90
70368;DHT22;57789;53.868;10.728;2023-02-01T10:16:25;6.30;99.90
70368;DHT22;57789;53.868;10.728;2023-02-01T10:21:44;6.60;99.90
70368;DHT22;57789;53.868;10.728;2023-02-01T10:27:04;6.60;99.90
70368;DHT22;57789;53.868;10.728;2023-02-01T10:29:40;6.60;99.90
70368;DHT22;57789;53.868;10.728;2023-02-01T10:32:22;6.60;99.90
70368;DHT22;57789;53.868;10.728;2023-02-01T10:35:13;6.70;99.90
70368;DHT22;57789;53.868;10.728;2023-02-01T10:37:44;6.80;99.90
70368;DHT22;57789;53.868;10.728;2023-02-01T10:40:23;6.80;99.90
70368;DHT22;57789;53.868;10.728;2023-02-01T10:42:52;6.80;99.90
70368;DHT22;57789;53.868;10.728;2023-02-01T10:45:20;6.90;99.90
70368;DHT22;57789;53.868;10.728;2023-02-01T10:47:50;7.00;99.90
70368;DHT22;57789;53.868;10.728;2023-02-01T10:52:52;7.20;99.90
70368;DHT22;57789;53.868;10.728;2023-02-01T10:55:28;7.20;99.90
70368;DHT22;57789;53.868;10.728;2023-02-01T10:58:00;7.10;99.90
70368;DHT22;57789;53.868;10.728;2023-02-01T11:00:27;7.10;99.90
70368;DHT22;57789;53.868;10.728;2023-02-01T11:02:54;7.10;99.90
70368;DHT22;57789;53.868;10.728;2023-02-01T11:05:22;7.00;99.90
70368;DHT22;57789;53.868;10.728;2023-02-01T11:07:55;7.00;99.90
70368;DHT22;57789;53.868;10.728;2023-02-01T11:10:38;6.90;99.90
70368;DHT22;57789;53.868;10.728;2023-02-01T11:13:05;7.00;99.90
70368;DHT22;57789;53.868;10.728;2023-02-01T11:22:21;6.70;99.90
70368;DHT22;57789;53.868;10.728;2023-02-01T11:24:47;6.50;99.90
70368;DHT22;57789;53.868;10.728;2023-02-01T11:27:18;6.40;99.90
70368;DHT22;57789;53.868;10.728;2023-02-01T11:29:49;6.00;99.90
70368;DHT22;57789;53.868;10.728;2023-02-01T11:32:18;5.80;99.90
70368;DHT22;57789;53.868;10.728;2023-02-01T11:35:01;5.40;99.90
70368;DHT22;57789;53.868;10.728;2023-02-01T11:37:31;5.10;99.90
70368;DHT22;57789;53.868;10.728;2023-02-01T11:40:01;4.90;99.90
70368;DHT22;57789;53.868;10.728;2023-02-01T11:42:29;4.80;99.90
70368;DHT22;57789;53.868;10.728;2023-02-01T11:45:28;4.70;99.90
70368;DHT22;57789;53.868;10.728;2023-02-01T11:47:57;4.70;99.90
70368;DHT22;57789;53.868;10.728;2023-02-01T11:55:56;4.90;99.90
70368;DHT22;57789;53.868;10.728;2023-02-01T12:33:01;5.60;99.90
70368;DHT22;57789;53.868;10.728;2023-02-01T12:35:59;5.60;99.90
70368;DHT22;57789;53.868;10.728;2023-02-01T12:41:56;5.20;99.90
70368;DHT22;57789;53.868;10.728;2023-02-01T12:55:24;4.60;99.90
70368;DHT22;57789;53.868;10.728;2023-02-01T12:57:54;4.40;99.90
70368;DHT22;57789;53.868;10.728;2023-02-01T13:00:36;4.30;99.90
70368;DHT22;57789;53.868;10.728;2023-02-01T13:08:26;4.30;99.90
70368;DHT22;57789;53.868;10.728;2023-02-01T13:11:03;4.30;99.90
70368;DHT22;57789;53.868;10.728;2023-02-01T13:13:45;4.30;99.90
70368;DHT22;57789;53.868;10.728;2023-02-01T13:16:34;4.40;99.90
70368;DHT22;57789;53.868;10.728;2023-02-01T13:19:23;4.50;99.90
70368;DHT22;57789;53.868;10.728;2023-02-01T13:21:57;4.60;99.90
70368;DHT22;57789;53.868;10.728;2023-02-01T13:24:40;4.60;99.90
70368;DHT22;57789;53.868;10.728;2023-02-01T13:27:11;4.60;99.90
70368;DHT22;57789;53.868;10.728;2023-02-01T13:30:06;4.70;99.90
70368;DHT22;57789;53.868;10.728;2023-02-01T13:35:46;4.70;99.90
70368;DHT22;57789;53.868;10.728;2023-02-01T13:41:12;4.80;99.90
70368;DHT22;57789;53.868;10.728;2023-02-01T13:43:51;4.80;99.90
70368;DHT22;57789;53.868;10.728;2023-02-01T13:46:19;4.70;99.90
70368;DHT22;57789;53.868;10.728;2023-02-01T13:49:02;4.60;99.90
70368;DHT22;57789;53.868;10.728;2023-02-01T13:51:35;4.50;99.90
70368;DHT22;57789;53.868;10.728;2023-02-01T13:54:02;4.40;99.90
70368;DHT22;57789;53.868;10.728;2023-02-01T13:56:40;4.30;99.90
70368;DHT22;57789;53.868;10.728;2023-02-01T14:13:31;4.10;99.90
70368;DHT22;57789;53.868;10.728;2023-02-01T14:21:23;4.30;99.90
70368;DHT22;57789;53.868;10.728;2023-02-01T14:26:21;4.20;99.90
70368;DHT22;57789;53.868;10.728;2023-02-01T14:31:50;4.30;99.90
70368;DHT22;57789;53.868;10.728;2023-02-01T14:34:31;4.30;99.90
70368;DHT22;57789;53.868;10.728;2023-02-01T14:37:02;4.30;99.90
70368;DHT22;57789;53.868;10.728;2023-02-01T14:42:13;4.40;99.90
70368;DHT22;57789;53.868;10.728;2023-02-01T14:44:40;4.40;99.90
70368;DHT22;57789;53.868;10.728;2023-02-01T14:47:26;4.40;99.90
70368;DHT22;57789;53.868;10.728;2023-02-01T14:52:38;4.30;99.90
70368;DHT22;57789;53.868;10.728;2023-02-01T14:55:21;4.30;99.90
70368;DHT22;57789;53.868;10.728;2023-02-01T14:57:51;4.30;99.90
70368;DHT22;57789;53.868;10.728;2023-02-01T15:02:47;4.30;99.90
70368;DHT22;57789;53.868;10.728;2023-02-01T15:05:29;4.30;99.90
70368;DHT22;57789;53.868;10.728;2023-02-01T15:07:58;4.40;99.90
70368;DHT22;57789;53.868;10.728;2023-02-01T15:10:26;4.40;99.90
70368;DHT22;57789;53.868;10.728;2023-02-01T15:12:52;4.40;99.90
70368;DHT22;57789;53.868;10.728;2023-02-01T15:15:21;4.50;99.90
70368;DHT22;57789;53.868;10.728;2023-02-01T15:17:56;4.50;99.90
70368;DHT22;57789;53.868;10.728;2023-02-01T15:20:25;4.50;99.90
70368;DHT22;57789;53.868;10.728;2023-02-01T15:22:59;4.50;99.90
70368;DHT22;57789;53.868;10.728;2023-02-01T15:25:34;4.40;99.90
70368;DHT22;57789;53.868;10.728;2023-02-01T15:28:04;4.40;99.90
70368;DHT22;57789;53.868;10.728;2023-02-01T15:30:33;4.40;99.90
70368;DHT22;57789;53.868;10.728;2023-02-01T15:35:45;4.40;99.90
70368;DHT22;57789;53.868;10.728;2023-02-01T15:41:11;4.40;99.90
70368;DHT22;57789;53.868;10.728;2023-02-01T15:46:13;4.40;99.90
70368;DHT22;57789;53.868;10.728;2023-02-01T15:48:48;4.40;99.90
70368;DHT22;57789;53.868;10.728;2023-02-01T15:51:18;4.30;99.90
70368;DHT22;57789;53.868;10.728;2023-02-01T15:56:25;4.30;99.90
70368;DHT22;57789;53.868;10.728;2023-02-01T15:58:55;4.40;99.90
70368;DHT22;57789;53.868;10.728;2023-02-01T16:01:22;4.40;99.90
70368;DHT22;57789;53.868;10.728;2023-02-01T16:03:48;4.50;99.90
70368;DHT22;57789;53.868;10.728;2023-02-01T16:09:11;4.50;99.90
70368;DHT22;57789;53.868;10.728;2023-02-01T16:11:57;4.50;99.90
70368;DHT22;57789;53.868;10.728;2023-02-01T16:14:24;4.60;99.90
70368;DHT22;57789;53.868;10.728;2023-02-01T16:16:51;4.60;99.90
70368;DHT22;57789;53.868;10.728;2023-02-01T16:19:17;4.60;99.90
70368;DHT22;57789;53.868;10.728;2023-02-01T16:21:43;4.60;99.90
70368;DHT22;57789;53.868;10.728;2023-02-01T16:24:09;4.60;99.90
70368;DHT22;57789;53.868;10.728;2023-02-01T16:26:35;4.60;99.90
70368;DHT22;57789;53.868;10.728;2023-02-01T16:29:01;4.70;99.90
70368;DHT22;57789;53.868;10.728;2023-02-01T16:31:34;4.60;99.90
70368;DHT22;57789;53.868;10.728;2023-02-01T16:34:00;4.60;99.90
70368;DHT22;57789;53.868;10.728;2023-02-01T16:36:26;4.60;99.90
70368;DHT22;57789;53.868;10.728;2023-02-01T16:38:53;4.60;99.90
70368;DHT22;57789;53.868;10.728;2023-02-01T16:41:21;4.50;99.90
70368;DHT22;57789;53.868;10.728;2023-02-01T16:43:52;4.50;99.90
70368;DHT22;57789;53.868;10.728;2023-02-01T16:46:21;4.50;99.90
70368;DHT22;57789;53.868;10.728;2023-02-01T16:48:56;4.60;99.90
70368;DHT22;57789;53.868;10.728;2023-02-01T16:51:24;4.60;99.90
70368;DHT22;57789;53.868;10.728;2023-02-01T16:53:51;4.60;99.90
70368;DHT22;57789;53.868;10.728;2023-02-01T16:56:21;4.60;99.90
70368;DHT22;57789;53.868;10.728;2023-02-01T16:58:47;4.60;99.90
70368;DHT22;57789;53.868;10.728;2023-02-01T17:01:15;4.70;99.90
70368;DHT22;57789;53.868;10.728;2023-02-01T17:03:41;4.70;99.90
70368;DHT22;57789;53.868;10.728;2023-02-01T17:06:16;4.80;99.90
70368;DHT22;57789;53.868;10.728;2023-02-01T17:08:55;4.90;99.90
70368;DHT22;57789;53.868;10.728;2023-02-01T17:11:26;4.90;99.90
70368;DHT22;57789;53.868;10.728;2023-02-01T17:14:17;5.00;99.90
70368;DHT22;57789;53.868;10.728;2023-02-01T17:16:48;5.00;99.90
70368;DHT22;57789;53.868;10.728;2023-02-01T17:19:17;5.00;99.90
70368;DHT22;57789;53.868;10.728;2023-02-01T17:21:46;5.00;99.90
70368;DHT22;57789;53.868;10.728;2023-02-01T17:24:15;5.10;99.90
70368;DHT22;57789;53.868;10.728;2023-02-01T17:26:42;5.10;99.90
70368;DHT22;57789;53.868;10.728;2023-02-01T17:29:08;5.20;99.90
70368;DHT22;57789;53.868;10.728;2023-02-01T17:31:40;5.30;99.90
70368;DHT22;57789;53.868;10.728;2023-02-01T17:34:09;5.30;99.90
70368;DHT22;57789;53.868;10.728;2023-02-01T17:36:35;5.30;99.90
70368;DHT22;57789;53.868;10.728;2023-02-01T17:39:01;5.40;99.90
70368;DHT22;57789;53.868;10.728;2023-02-01T17:41:27;5.40;99.90
70368;DHT22;57789;53.868;10.728;2023-02-01T17:43:53;5.50;99.90
70368;DHT22;57789;53.868;10.728;2023-02-01T17:46:19;5.50;99.90
70368;DHT22;57789;53.868;10.728;2023-02-01T17:48:54;5.50;99.90
70368;DHT22;57789;53.868;10.728;2023-02-01T17:51:22;5.50;99.90
70368;DHT22;57789;53.868;10.728;2023-02-01T17:53:49;5.50;99.90
70368;DHT22;57789;53.868;10.728;2023-02-01T17:56:17;5.60;99.90
70368;DHT22;57789;53.868;10.728;2023-02-01T17:58:44;5.60;99.90
70368;DHT22;57789;53.868;10.728;2023-02-01T18:01:17;5.60;99.90
70368;DHT22;57789;53.868;10.728;2023-02-01T18:03:44;5.60;99.90
70368;DHT22;57789;53.868;10.728;2023-02-01T18:06:14;5.60;99.90
70368;DHT22;57789;53.868;10.728;2023-02-01T18:08:40;5.60;99.90
70368;DHT22;57789;53.868;10.728;2023-02-01T18:11:13;5.60;99.90
70368;DHT22;57789;53.868;10.728;2023-02-01T18:13:39;5.70;99.90
70368;DHT22;57789;53.868;10.728;2023-02-01T18:16:17;5.70;99.90
70368;DHT22;57789;53.868;10.728;2023-02-01T18:18:47;5.70;99.90
70368;DHT22;57789;53.868;10.728;2023-02-01T18:21:14;5.80;99.90
70368;DHT22;57789;53.868;10.728;2023-02-01T18:23:42;5.80;99.90
70368;DHT22;57789;53.868;10.728;2023-02-01T18:26:10;5.80;99.90
70368;DHT22;57789;53.868;10.728;2023-02-01T18:28:37;5.80;99.90
70368;DHT22;57789;53.868;10.728;2023-02-01T18:31:04;5.80;99.90
70368;DHT22;57789;53.868;10.728;2023-02-01T18:33:31;5.90;99.90
70368;DHT22;57789;53.868;10.728;2023-02-01T18:35:57;5.90;99.90
70368;DHT22;57789;53.868;10.728;2023-02-01T18:38:22;5.80;99.90
70368;DHT22;57789;53.868;10.728;2023-02-01T18:40:53;5.80;99.90
70368;DHT22;57789;53.868;10.728;2023-02-01T18:43:20;5.70;99.90
70368;DHT22;57789;53.868;10.728;2023-02-01T18:45:47;5.70;99.90
70368;DHT22;57789;53.868;10.728;2023-02-01T18:48:14;5.70;99.90
70368;DHT22;57789;53.868;10.728;2023-02-01T18:50:44;5.60;99.90